createdAt,value
2017-12-16T00:00:53.073Z,7.63
2017-12-16T00:03:20.565Z,7.27
2017-12-16T00:05:48.061Z,7.87
2017-12-16T00:08:15.507Z,8.23
2017-12-16T00:10:42.967Z,7.60
2017-12-16T00:13:10.426Z,8.30
2017-12-16T00:15:37.897Z,8.47
2017-12-16T00:18:05.343Z,9.47
2017-12-16T00:23:06.632Z,10.83
2017-12-16T00:25:34.116Z,10.33
2017-12-16T00:28:01.625Z,10.50
2017-12-16T00:30:30.240Z,9.87
2017-12-16T00:32:57.752Z,10.20
2017-12-16T00:35:25.219Z,11.13
2017-12-16T00:37:52.665Z,8.30
2017-12-16T00:40:20.129Z,10.70
2017-12-16T00:42:47.629Z,9.77
2017-12-16T00:45:15.324Z,10.83
2017-12-16T00:47:42.808Z,10.17
2017-12-16T00:50:10.259Z,9.50
2017-12-16T00:52:37.736Z,9.17
2017-12-16T00:55:05.270Z,11.43
2017-12-16T00:57:32.729Z,9.87
2017-12-16T01:00:00.294Z,9.20
2017-12-16T01:02:27.785Z,11.07
2017-12-16T01:04:55.245Z,10.33
2017-12-16T01:07:22.721Z,9.27
2017-12-16T01:09:50.184Z,10.13
2017-12-16T01:12:17.637Z,9.80
2017-12-16T01:14:45.116Z,11.30
2017-12-16T01:17:12.569Z,10.80
2017-12-16T01:19:40.088Z,9.60
2017-12-16T01:22:07.547Z,10.67
2017-12-16T01:24:35.057Z,10.43
2017-12-16T01:27:02.524Z,10.10
2017-12-16T01:29:30.015Z,9.60
2017-12-16T01:31:57.481Z,9.77
2017-12-16T01:34:36.860Z,9.27
2017-12-16T01:40:05.122Z,10.27
2017-12-16T01:42:32.691Z,10.40
2017-12-16T01:45:00.145Z,10.70
2017-12-16T01:47:27.665Z,11.77
2017-12-16T01:49:55.167Z,10.10
2017-12-16T01:52:22.614Z,10.00
2017-12-16T01:54:50.059Z,10.53
2017-12-16T01:57:17.551Z,10.90
2017-12-16T01:59:45.015Z,11.40
2017-12-16T02:02:12.474Z,10.20
2017-12-16T02:04:39.901Z,9.63
2017-12-16T02:07:07.376Z,10.47
2017-12-16T02:09:34.820Z,9.77
2017-12-16T02:12:02.266Z,9.03
2017-12-16T02:14:29.701Z,9.30
2017-12-16T02:16:57.206Z,8.70
2017-12-16T02:19:24.637Z,8.60
2017-12-16T02:21:52.109Z,9.43
2017-12-16T02:24:19.547Z,9.47
2017-12-16T02:26:47.036Z,10.00
2017-12-16T02:29:14.592Z,9.50
2017-12-16T02:31:42.075Z,8.97
2017-12-16T02:34:09.523Z,9.30
2017-12-16T02:36:36.978Z,9.47
2017-12-16T02:39:04.505Z,9.60
2017-12-16T02:41:31.955Z,9.83
2017-12-16T02:43:59.419Z,10.03
2017-12-16T02:46:26.855Z,8.87
2017-12-16T02:48:54.327Z,10.50
2017-12-16T02:51:21.768Z,9.40
2017-12-16T02:53:49.224Z,10.10
2017-12-16T02:56:16.753Z,10.90
2017-12-16T02:58:44.223Z,10.33
2017-12-16T03:01:11.681Z,10.33
2017-12-16T03:03:39.136Z,10.20
2017-12-16T03:06:06.581Z,10.47
2017-12-16T03:08:34.049Z,9.70
2017-12-16T03:11:01.481Z,9.90
2017-12-16T03:13:28.979Z,10.20
2017-12-16T03:15:56.413Z,9.63
2017-12-16T03:18:23.855Z,9.60
2017-12-16T03:20:51.312Z,8.90
2017-12-16T03:23:18.755Z,9.43
2017-12-16T03:25:46.220Z,10.43
2017-12-16T03:28:13.683Z,10.33
2017-12-16T03:30:41.157Z,9.53
2017-12-16T03:33:08.614Z,10.27
2017-12-16T03:35:36.083Z,9.23
2017-12-16T03:38:03.527Z,9.67
2017-12-16T03:40:30.985Z,8.63
2017-12-16T03:42:58.431Z,9.30
2017-12-16T03:45:25.897Z,9.00
2017-12-16T03:47:53.343Z,8.10
2017-12-16T03:50:20.812Z,9.27
2017-12-16T03:52:48.254Z,9.37
2017-12-16T03:55:15.747Z,9.90
2017-12-16T03:57:43.203Z,8.80
2017-12-16T04:00:10.639Z,8.80
2017-12-16T04:02:38.099Z,7.67
2017-12-16T04:05:05.540Z,6.90
2017-12-16T04:07:32.999Z,7.97
2017-12-16T04:10:00.497Z,7.47
2017-12-16T04:12:27.950Z,8.40
2017-12-16T04:14:55.394Z,8.50
2017-12-16T04:17:22.842Z,8.80
2017-12-16T04:19:50.287Z,9.57
2017-12-16T04:22:17.790Z,8.60
2017-12-16T04:24:45.226Z,9.80
2017-12-16T04:27:12.700Z,9.70
2017-12-16T04:29:40.136Z,10.80
2017-12-16T04:32:07.607Z,10.00
2017-12-16T04:34:35.071Z,10.20
2017-12-16T04:37:02.552Z,10.93
2017-12-16T04:39:30.003Z,10.07
2017-12-16T04:41:57.512Z,10.00
2017-12-16T04:44:24.963Z,11.33
2017-12-16T04:46:52.426Z,10.07
2017-12-16T04:49:19.916Z,9.33
2017-12-16T04:51:47.372Z,10.77
2017-12-16T04:54:14.846Z,8.60
2017-12-16T04:56:42.277Z,8.87
2017-12-16T04:59:09.738Z,10.10
2017-12-16T05:01:37.174Z,8.87
2017-12-16T05:04:04.652Z,9.23
2017-12-16T05:06:32.108Z,9.77
2017-12-16T05:08:59.587Z,10.40
2017-12-16T05:11:27.018Z,9.00
2017-12-16T05:13:54.482Z,9.30
2017-12-16T05:16:21.928Z,9.30
2017-12-16T05:18:49.399Z,9.27
2017-12-16T05:21:16.843Z,9.37
2017-12-16T05:23:44.308Z,10.37
2017-12-16T05:26:11.768Z,10.00
2017-12-16T05:28:39.236Z,9.83
2017-12-16T05:31:06.767Z,8.60
2017-12-16T05:33:34.289Z,9.07
2017-12-16T05:36:01.721Z,9.50
2017-12-16T05:38:29.173Z,8.50
2017-12-16T05:40:56.601Z,8.93
2017-12-16T05:43:24.036Z,9.83
2017-12-16T05:45:51.491Z,9.03
2017-12-16T05:48:18.929Z,10.83
2017-12-16T05:50:46.391Z,9.40
2017-12-16T05:53:13.843Z,9.93
2017-12-16T05:55:41.320Z,9.40
2017-12-16T05:58:08.780Z,9.70
2017-12-16T06:00:36.233Z,9.53
2017-12-16T06:03:03.679Z,10.57
2017-12-16T06:05:31.137Z,10.60
2017-12-16T06:07:58.575Z,11.20
2017-12-16T06:10:26.047Z,9.80
2017-12-16T06:12:53.484Z,9.93
2017-12-16T06:15:20.969Z,10.07
2017-12-16T06:17:48.401Z,9.90
2017-12-16T06:20:15.860Z,11.10
2017-12-16T06:22:43.297Z,10.10
2017-12-16T06:25:10.807Z,10.20
2017-12-16T06:27:38.247Z,8.23
2017-12-16T06:30:05.696Z,9.70
2017-12-16T06:32:33.129Z,9.30
2017-12-16T06:35:00.593Z,9.90
2017-12-16T06:37:28.033Z,10.40
2017-12-16T06:39:55.561Z,10.17
2017-12-16T06:42:23.006Z,10.70
2017-12-16T06:44:50.442Z,9.80
2017-12-16T06:47:17.906Z,9.73
2017-12-16T06:49:45.344Z,9.93
2017-12-16T06:52:12.802Z,9.50
2017-12-16T06:54:40.248Z,11.50
2017-12-16T06:57:07.714Z,10.70
2017-12-16T06:59:35.168Z,10.13
2017-12-16T07:02:02.656Z,10.47
2017-12-16T07:04:30.104Z,11.00
2017-12-16T07:06:57.567Z,9.40
2017-12-16T07:09:24.998Z,10.07
2017-12-16T07:11:52.472Z,11.90
2017-12-16T07:14:19.923Z,12.37
2017-12-16T07:16:47.382Z,12.03
2017-12-16T07:19:14.827Z,10.70
2017-12-16T07:21:42.549Z,11.50
2017-12-16T07:24:09.985Z,10.60
2017-12-16T07:26:37.463Z,9.77
2017-12-16T07:29:04.947Z,10.73
2017-12-16T07:31:32.406Z,9.97
2017-12-16T07:33:59.870Z,9.70
2017-12-16T07:36:27.354Z,10.90
2017-12-16T07:38:54.822Z,11.23
2017-12-16T07:41:22.299Z,9.23
2017-12-16T07:43:49.754Z,7.93
2017-12-16T07:46:17.203Z,9.63
2017-12-16T07:48:44.657Z,9.83
2017-12-16T07:51:12.116Z,10.43
2017-12-16T07:53:39.583Z,10.73
2017-12-16T07:56:07.027Z,13.63
2017-12-16T07:58:34.534Z,10.67
2017-12-16T08:01:01.991Z,10.20
2017-12-16T08:03:29.427Z,10.70
2017-12-16T08:05:56.972Z,10.60
2017-12-16T08:08:24.431Z,10.13
2017-12-16T08:10:51.891Z,11.30
2017-12-16T08:13:19.338Z,11.97
2017-12-16T08:15:46.810Z,11.20
2017-12-16T08:18:14.259Z,11.53
2017-12-16T08:20:41.737Z,10.70
2017-12-16T08:23:09.169Z,11.53
2017-12-16T08:25:36.655Z,11.40
2017-12-16T08:28:04.146Z,11.00
2017-12-16T08:30:31.602Z,12.83
2017-12-16T08:32:59.043Z,13.13
2017-12-16T08:35:26.506Z,13.80
2017-12-16T08:37:54.002Z,14.10
2017-12-16T08:40:21.428Z,14.33
2017-12-16T08:42:48.879Z,12.77
2017-12-16T08:45:16.352Z,14.70
2017-12-16T08:47:43.799Z,14.83
2017-12-16T08:50:11.293Z,16.93
2017-12-16T08:52:38.734Z,15.17
2017-12-16T08:55:06.188Z,16.83
2017-12-16T08:57:33.660Z,16.53
2017-12-16T09:00:01.105Z,15.70
2017-12-16T09:02:28.575Z,19.07
2017-12-16T09:04:56.031Z,19.30
2017-12-16T09:07:23.559Z,16.50
2017-12-16T09:09:51.011Z,16.17
2017-12-16T09:12:18.579Z,17.07
2017-12-16T09:14:46.027Z,17.40
2017-12-16T09:17:13.486Z,16.63
2017-12-16T09:19:41.083Z,16.80
2017-12-16T09:22:08.542Z,16.30
2017-12-16T09:24:35.996Z,18.33
2017-12-16T09:27:03.463Z,16.87
2017-12-16T09:29:30.902Z,15.33
2017-12-16T09:31:58.346Z,16.63
2017-12-16T09:34:25.819Z,16.47
2017-12-16T09:36:53.279Z,16.40
2017-12-16T09:39:20.749Z,16.30
2017-12-16T09:41:48.215Z,17.20
2017-12-16T09:44:15.674Z,17.57
2017-12-16T09:46:43.123Z,18.47
2017-12-16T09:49:10.595Z,17.70
2017-12-16T09:51:38.041Z,18.50
2017-12-16T09:54:05.498Z,17.93
2017-12-16T09:56:32.944Z,18.40
2017-12-16T09:59:00.415Z,14.13
2017-12-16T10:01:27.849Z,13.23
2017-12-16T10:03:55.318Z,12.93
2017-12-16T10:06:22.774Z,12.20
2017-12-16T10:08:50.259Z,15.63
2017-12-16T10:11:17.744Z,16.37
2017-12-16T10:13:45.210Z,14.17
2017-12-16T10:16:12.670Z,12.90
2017-12-16T10:18:40.119Z,13.00
2017-12-16T10:21:07.631Z,13.00
2017-12-16T10:23:35.102Z,11.43
2017-12-16T10:26:02.570Z,12.57
2017-12-16T10:28:30.043Z,11.90
2017-12-16T10:30:57.506Z,11.13
2017-12-16T10:33:25.001Z,12.67
2017-12-16T10:35:52.471Z,9.97
2017-12-16T10:38:19.922Z,9.40
2017-12-16T10:40:47.387Z,9.53
2017-12-16T10:43:14.830Z,10.03
2017-12-16T10:45:42.294Z,10.53
2017-12-16T10:48:09.782Z,11.37
2017-12-16T10:50:37.255Z,10.50
2017-12-16T10:53:04.790Z,9.80
2017-12-16T10:55:32.282Z,10.20
2017-12-16T10:57:59.729Z,11.53
2017-12-16T11:00:32.931Z,10.57
2017-12-16T11:03:00.387Z,11.50
2017-12-16T11:05:27.928Z,11.20
2017-12-16T11:07:55.389Z,10.60
2017-12-16T11:10:22.839Z,10.80
2017-12-16T11:12:50.292Z,10.20
2017-12-16T11:15:17.734Z,11.33
2017-12-16T11:17:45.254Z,12.10
2017-12-16T11:20:12.707Z,11.37
2017-12-16T11:22:40.224Z,11.77
2017-12-16T11:25:07.671Z,10.47
2017-12-16T11:27:35.136Z,11.40
2017-12-16T11:30:02.592Z,11.70
2017-12-16T11:32:30.142Z,10.10
2017-12-16T11:34:57.570Z,8.80
2017-12-16T11:37:25.041Z,8.33
2017-12-16T11:39:52.506Z,7.17
2017-12-16T11:42:19.966Z,7.20
2017-12-16T11:44:47.434Z,7.13
2017-12-16T11:47:14.896Z,7.60
2017-12-16T11:49:42.348Z,11.33
2017-12-16T11:52:09.803Z,6.93
2017-12-16T11:54:37.242Z,9.63
2017-12-16T11:57:04.690Z,6.87
2017-12-16T11:59:32.113Z,7.00
2017-12-16T12:01:59.578Z,7.10
2017-12-16T12:04:27.006Z,5.73
2017-12-16T12:06:54.446Z,6.10
2017-12-16T12:09:22.114Z,4.60
2017-12-16T12:11:49.582Z,4.40
2017-12-16T12:14:17.064Z,3.20
2017-12-16T12:16:44.503Z,4.33
2017-12-16T12:19:11.970Z,3.80
2017-12-16T12:21:39.405Z,4.67
2017-12-16T12:24:06.860Z,3.20
2017-12-16T12:26:34.386Z,4.03
2017-12-16T12:29:01.850Z,3.07
2017-12-16T12:31:29.443Z,4.10
2017-12-16T12:33:56.888Z,3.30
2017-12-16T12:36:24.327Z,3.63
2017-12-16T12:38:51.787Z,4.17
2017-12-16T12:41:19.213Z,2.30
2017-12-16T12:43:46.678Z,2.93
2017-12-16T12:46:14.137Z,2.53
2017-12-16T12:48:41.632Z,2.40
2017-12-16T12:51:09.087Z,2.80
2017-12-16T12:53:36.517Z,2.20
2017-12-16T12:56:03.974Z,2.00
2017-12-16T12:58:31.415Z,2.80
2017-12-16T13:00:58.887Z,2.20
2017-12-16T13:03:26.329Z,3.13
2017-12-16T13:05:53.793Z,3.40
2017-12-16T13:08:21.220Z,3.50
2017-12-16T13:10:48.669Z,3.37
2017-12-16T13:13:16.103Z,3.90
2017-12-16T13:15:43.563Z,3.37
2017-12-16T13:18:11.004Z,3.73
2017-12-16T13:20:38.477Z,3.30
2017-12-16T13:23:05.995Z,3.17
2017-12-16T13:25:33.459Z,3.77
2017-12-16T13:28:00.907Z,4.40
2017-12-16T13:30:28.368Z,4.17
2017-12-16T13:32:55.820Z,4.00
2017-12-16T13:35:23.305Z,3.73
2017-12-16T13:37:50.743Z,4.23
2017-12-16T13:40:18.214Z,3.77
2017-12-16T13:42:45.659Z,5.20
2017-12-16T13:45:13.164Z,2.43
2017-12-16T13:47:40.612Z,2.30
2017-12-16T13:50:08.051Z,1.80
2017-12-16T13:52:35.505Z,1.50
2017-12-16T13:55:02.938Z,2.43
2017-12-16T13:57:30.385Z,2.67
2017-12-16T13:59:57.850Z,2.60
2017-12-16T14:02:25.315Z,4.07
2017-12-16T14:04:52.764Z,3.00
2017-12-16T14:07:20.225Z,3.37
2017-12-16T14:09:47.667Z,2.90
2017-12-16T14:12:15.128Z,3.90
2017-12-16T14:14:42.566Z,4.07
2017-12-16T14:17:10.031Z,4.90
2017-12-16T14:19:37.499Z,4.57
2017-12-16T14:22:04.966Z,4.10
2017-12-16T14:24:32.480Z,4.67
2017-12-16T14:26:59.914Z,4.70
2017-12-16T14:29:27.375Z,4.40
2017-12-16T14:31:54.810Z,5.63
2017-12-16T14:34:22.292Z,4.97
2017-12-16T14:36:49.733Z,5.90
2017-12-16T14:39:24.779Z,3.90
2017-12-16T14:41:52.238Z,4.50
2017-12-16T14:44:19.701Z,5.20
2017-12-16T14:46:47.165Z,6.97
2017-12-16T14:49:14.617Z,4.20
2017-12-16T14:51:42.067Z,4.00
2017-12-16T14:54:09.530Z,4.57
2017-12-16T14:56:36.982Z,5.53
2017-12-16T14:59:04.451Z,4.63
2017-12-16T15:01:31.936Z,4.90
2017-12-16T15:03:59.375Z,4.70
2017-12-16T15:06:26.834Z,5.20
2017-12-16T15:08:54.287Z,4.23
2017-12-16T15:11:21.752Z,4.00
2017-12-16T15:13:49.189Z,5.13
2017-12-16T15:16:16.640Z,4.03
2017-12-16T15:18:44.080Z,3.93
2017-12-16T15:21:11.546Z,5.20
2017-12-16T15:23:38.990Z,4.70
2017-12-16T15:26:06.464Z,4.53
2017-12-16T15:28:33.908Z,4.90
2017-12-16T15:31:01.405Z,4.23
2017-12-16T15:33:28.868Z,4.43
2017-12-16T15:35:56.325Z,4.63
2017-12-16T15:38:23.795Z,3.53
2017-12-16T15:40:51.238Z,4.30
2017-12-16T15:43:18.802Z,4.17
2017-12-16T15:45:46.248Z,3.37
2017-12-16T15:48:13.714Z,4.43
2017-12-16T15:50:41.147Z,3.73
2017-12-16T15:53:08.602Z,2.83
2017-12-16T15:55:36.054Z,3.20
2017-12-16T15:58:03.506Z,3.83
2017-12-16T16:00:30.933Z,2.90
2017-12-16T16:02:58.402Z,4.13
2017-12-16T16:05:25.876Z,3.60
2017-12-16T16:07:53.324Z,4.03
2017-12-16T16:10:20.782Z,5.10
2017-12-16T16:12:48.224Z,4.63
2017-12-16T16:15:15.721Z,5.27
2017-12-16T16:17:43.190Z,6.07
2017-12-16T16:20:10.651Z,6.63
2017-12-16T16:22:38.094Z,10.03
2017-12-16T16:25:05.554Z,10.30
2017-12-16T16:27:32.989Z,11.50
2017-12-16T16:30:00.495Z,11.13
2017-12-16T16:32:27.942Z,10.20
2017-12-16T16:34:55.419Z,11.47
2017-12-16T16:37:22.877Z,10.33
2017-12-16T16:39:50.399Z,10.30
2017-12-16T16:42:17.845Z,6.53
2017-12-16T16:44:45.306Z,4.70
2017-12-16T16:47:12.766Z,5.10
2017-12-16T16:49:40.203Z,5.63
2017-12-16T16:52:07.723Z,4.67
2017-12-16T16:54:35.170Z,3.47
2017-12-16T16:57:02.651Z,3.13
2017-12-16T16:59:30.100Z,3.80
2017-12-16T17:01:57.574Z,3.10
2017-12-16T17:04:25.018Z,3.80
2017-12-16T17:06:52.479Z,2.63
2017-12-16T17:09:19.940Z,3.43
2017-12-16T17:11:47.438Z,3.83
2017-12-16T17:14:14.901Z,3.00
2017-12-16T17:16:42.358Z,3.60
2017-12-16T17:19:09.819Z,3.37
2017-12-16T17:21:37.381Z,3.00
2017-12-16T17:24:04.809Z,2.97
2017-12-16T17:26:32.309Z,3.80
2017-12-16T17:28:59.818Z,3.70
2017-12-16T17:31:27.270Z,3.93
2017-12-16T17:33:54.731Z,3.97
2017-12-16T17:36:22.188Z,3.73
2017-12-16T17:38:49.656Z,3.60
2017-12-16T17:41:17.151Z,3.87
2017-12-16T17:43:44.601Z,4.00
2017-12-16T17:46:12.038Z,3.87
2017-12-16T17:48:39.500Z,4.00
2017-12-16T17:51:06.932Z,4.17
2017-12-16T17:53:34.416Z,4.23
2017-12-16T17:56:01.858Z,3.77
2017-12-16T17:58:29.338Z,3.50
2017-12-16T18:00:56.919Z,3.70
2017-12-16T18:03:24.382Z,3.00
2017-12-16T18:05:51.817Z,3.20
2017-12-16T18:08:20.374Z,4.00
2017-12-16T18:10:47.805Z,3.77
2017-12-16T18:13:15.344Z,4.30
2017-12-16T18:15:43.092Z,4.27
2017-12-16T18:18:10.579Z,4.07
2017-12-16T18:20:38.635Z,4.73
2017-12-16T18:23:06.787Z,3.77
2017-12-16T18:25:34.403Z,3.73
2017-12-16T18:28:01.837Z,4.20
2017-12-16T18:30:29.302Z,3.30
2017-12-16T18:32:56.761Z,4.10
2017-12-16T18:35:24.217Z,3.47
2017-12-16T18:37:51.706Z,3.87
2017-12-16T18:40:19.218Z,2.87
2017-12-16T18:42:46.657Z,3.57
2017-12-16T18:45:14.124Z,3.90
2017-12-16T18:47:41.654Z,3.33
2017-12-16T18:50:09.127Z,2.60
2017-12-16T18:52:36.634Z,3.03
2017-12-16T18:55:04.086Z,3.40
2017-12-16T18:57:31.632Z,3.23
2017-12-16T18:59:59.126Z,4.27
2017-12-16T19:02:26.682Z,3.90
2017-12-16T19:04:54.123Z,2.97
2017-12-16T19:07:21.587Z,3.17
2017-12-16T19:09:49.035Z,2.80
2017-12-16T19:12:16.491Z,3.40
2017-12-16T19:14:43.958Z,3.13
2017-12-16T19:17:11.506Z,3.53
2017-12-16T19:19:38.950Z,2.40
2017-12-16T19:22:06.419Z,2.53
2017-12-16T19:24:33.855Z,2.93
2017-12-16T19:27:01.452Z,3.17
2017-12-16T19:29:28.911Z,3.33
2017-12-16T19:31:56.361Z,4.00
2017-12-16T19:34:23.810Z,4.90
2017-12-16T19:36:51.279Z,4.60
2017-12-16T19:39:18.721Z,3.30
2017-12-16T19:41:46.192Z,3.30
2017-12-16T19:44:13.625Z,3.20
2017-12-16T19:46:41.087Z,3.83
2017-12-16T19:49:08.527Z,2.80
2017-12-16T19:51:36.016Z,2.23
2017-12-16T19:54:03.468Z,2.63
2017-12-16T19:56:30.923Z,2.20
2017-12-16T19:58:58.395Z,3.50
2017-12-16T20:01:25.832Z,3.27
2017-12-16T20:03:53.344Z,2.30
2017-12-16T20:06:20.778Z,2.30
2017-12-16T20:08:48.231Z,1.80
2017-12-16T20:11:15.671Z,2.20
2017-12-16T20:13:43.121Z,3.53
2017-12-16T20:16:10.556Z,3.60
2017-12-16T20:18:38.019Z,5.47
2017-12-16T20:21:05.480Z,3.87
2017-12-16T20:23:32.955Z,4.93
2017-12-16T20:26:00.403Z,6.03
2017-12-16T20:28:27.857Z,3.60
2017-12-16T20:30:55.298Z,1.90
2017-12-16T20:33:22.860Z,1.80
2017-12-16T20:35:50.781Z,2.87
2017-12-16T20:38:18.214Z,1.63
2017-12-16T20:40:45.679Z,1.80
2017-12-16T20:43:13.108Z,1.60
2017-12-16T20:45:40.562Z,1.63
2017-12-16T20:50:42.012Z,1.67
2017-12-16T20:53:09.480Z,2.07
2017-12-16T20:55:36.959Z,1.57
2017-12-16T20:58:04.406Z,1.67
2017-12-16T21:00:31.875Z,1.53
2017-12-16T21:02:59.314Z,1.80
2017-12-16T21:05:26.779Z,2.00
2017-12-16T21:07:54.214Z,2.53
2017-12-16T21:10:21.670Z,1.67
2017-12-16T21:12:49.101Z,1.87
2017-12-16T21:15:16.599Z,2.70
2017-12-16T21:17:44.040Z,1.83
2017-12-16T21:20:11.479Z,2.77
2017-12-16T21:22:38.949Z,2.10
2017-12-16T21:25:06.377Z,1.30
2017-12-16T21:27:33.844Z,2.63
2017-12-16T21:30:01.283Z,1.60
2017-12-16T21:32:28.747Z,2.00
2017-12-16T21:34:56.196Z,2.10
2017-12-16T21:37:23.658Z,2.13
2017-12-16T21:39:51.089Z,2.47
2017-12-16T21:42:18.554Z,3.97
2017-12-16T21:44:46.003Z,2.70
2017-12-16T21:47:13.457Z,2.03
2017-12-16T21:49:41.175Z,2.27
2017-12-16T21:52:08.647Z,2.23
2017-12-16T21:54:36.096Z,1.67
2017-12-16T21:57:03.612Z,2.07
2017-12-16T21:59:31.104Z,1.77
2017-12-16T22:01:58.620Z,1.43
2017-12-16T22:04:26.079Z,1.80
2017-12-16T22:06:53.515Z,2.07
2017-12-16T22:09:20.985Z,2.20
2017-12-16T22:11:48.441Z,1.53
2017-12-16T22:14:15.941Z,1.60
2017-12-16T22:16:43.389Z,2.17
2017-12-16T22:19:10.852Z,1.70
2017-12-16T22:21:38.290Z,1.20
2017-12-16T22:24:05.770Z,1.70
2017-12-16T22:26:33.245Z,1.83
2017-12-16T22:29:00.716Z,1.67
2017-12-16T22:31:28.161Z,1.87
2017-12-16T22:33:55.695Z,1.57
2017-12-16T22:36:23.136Z,1.43
2017-12-16T22:38:50.642Z,1.63
2017-12-16T22:41:18.078Z,1.60
2017-12-16T22:43:45.510Z,1.30
2017-12-16T22:46:12.966Z,1.53
2017-12-16T22:48:40.398Z,1.70
2017-12-16T22:51:07.855Z,1.30
2017-12-16T22:53:35.297Z,1.57
2017-12-16T22:56:02.764Z,1.20
2017-12-16T22:58:30.208Z,1.07
2017-12-16T23:00:57.661Z,1.90
2017-12-16T23:03:25.098Z,1.13
2017-12-16T23:05:52.572Z,1.30
2017-12-16T23:08:20.010Z,1.40
2017-12-16T23:10:47.485Z,1.73
2017-12-16T23:13:15.002Z,1.60
2017-12-16T23:15:42.463Z,2.10
2017-12-16T23:18:09.915Z,1.70
2017-12-16T23:20:37.412Z,1.83
2017-12-16T23:23:04.850Z,1.83
2017-12-16T23:25:32.289Z,1.50
2017-12-16T23:27:59.742Z,2.63
2017-12-16T23:30:27.196Z,1.47
2017-12-16T23:32:54.662Z,2.00
2017-12-16T23:35:22.098Z,0.80
2017-12-16T23:37:49.564Z,1.80
2017-12-16T23:40:17.029Z,1.23
2017-12-16T23:42:44.474Z,1.17
2017-12-16T23:45:11.910Z,1.87
2017-12-16T23:47:39.384Z,1.87
2017-12-16T23:50:06.821Z,1.40
2017-12-16T23:52:34.310Z,1.53
2017-12-16T23:55:01.755Z,1.50
2017-12-16T23:57:29.236Z,1.70
2017-12-16T23:59:56.679Z,1.20
